aviador You're here:

LYPG Decoded Metar

PODGORICA in SERBIA
Report Time2018-06-18 15:00:00
UTC Time2018-06-18 15:27:50
Flight Rules vfr VFR
Wind200° at 03 kt
W.Decomp.*RWY 18: 2.9 kt HW 0.9 kt RCW
W.Rank200° ranks 15
Current wind is below 200° avg. (4.1)
Visibility9999 m
Phenomena:N/A
Clouds:Few 033 Hf
Broken 040 Hf
Expected CloudBase > 2,800 ft AGL from Temp-Dew spread
Ceiling4,000 ft
Temp25°C (ISA +10)
Dew Point18°C (65% RH)
QNH1009 hPa
Density Alt1,739 ft
Elevation141 ft
Report Wrong Elevation
Raw Report
LYPG 181500Z 20003KT 160V230 9999 FEW033 BKN040 25/18 Q1009
NOSIG=

Extra information for LYPG:More info

Metar Taf Metar & Taf Last 4 Metars F.Rules Stats Wind Profile Meteogram Temp Stats Airport Information Weather charts Add Link Nearby VenuesMetar ALERT Operation Metar Decoded Social comments